createdAt,value
2019-02-12T00:02:01.495Z,3.27
2019-02-12T00:04:33.148Z,3.30
2019-02-12T00:07:04.812Z,3.07
2019-02-12T00:09:36.532Z,3.00
2019-02-12T00:12:08.124Z,2.89
2019-02-12T00:14:39.979Z,2.82
2019-02-12T00:17:11.652Z,2.83
2019-02-12T00:19:43.457Z,2.84
2019-02-12T00:22:15.192Z,2.86
2019-02-12T00:24:46.816Z,2.70
2019-02-12T00:27:18.432Z,2.66
2019-02-12T00:29:50.023Z,2.62
2019-02-12T00:32:21.583Z,2.58
2019-02-12T00:34:53.193Z,2.60
2019-02-12T00:37:24.993Z,2.54
2019-02-12T00:39:56.593Z,2.53
2019-02-12T00:42:28.177Z,2.46
2019-02-12T00:44:59.836Z,2.42
2019-02-12T00:47:35.659Z,2.46
2019-02-12T00:50:11.213Z,2.47
2019-02-12T00:52:42.811Z,2.49
2019-02-12T00:55:16.443Z,2.63
2019-02-12T00:57:47.790Z,2.67
2019-02-12T01:00:19.442Z,2.48
2019-02-12T01:02:51.061Z,2.51
2019-02-12T01:05:22.645Z,2.51
2019-02-12T01:07:54.490Z,2.47
2019-02-12T01:10:26.212Z,2.41
2019-02-12T01:12:57.852Z,2.62
2019-02-12T01:15:29.564Z,2.76
2019-02-12T01:18:01.286Z,2.65
2019-02-12T01:20:32.980Z,2.48
2019-02-12T01:23:04.592Z,2.50
2019-02-12T01:25:36.187Z,2.57
2019-02-12T01:28:07.863Z,2.58
2019-02-12T01:30:39.580Z,2.59
2019-02-12T01:33:11.410Z,2.50
2019-02-12T01:35:43.127Z,2.46
2019-02-12T01:38:15.027Z,2.49
2019-02-12T01:40:46.667Z,2.61
2019-02-12T01:43:18.257Z,2.63
2019-02-12T01:45:49.966Z,2.62
2019-02-12T01:48:21.644Z,2.66
2019-02-12T01:50:53.419Z,2.68
2019-02-12T01:53:24.995Z,2.69
2019-02-12T01:55:56.651Z,2.65
2019-02-12T01:58:28.229Z,2.59
2019-02-12T02:00:59.813Z,2.73
2019-02-12T02:03:31.394Z,2.74
2019-02-12T02:06:02.983Z,2.59
2019-02-12T02:08:34.577Z,2.67
2019-02-12T02:11:06.286Z,2.67
2019-02-12T02:13:38.101Z,2.64
2019-02-12T02:16:09.825Z,2.47
2019-02-12T02:18:41.507Z,2.43
2019-02-12T02:21:13.196Z,2.44
2019-02-12T02:23:44.852Z,2.33
2019-02-12T02:26:16.569Z,2.32
2019-02-12T02:28:48.343Z,2.26
2019-02-12T02:31:19.933Z,2.38
2019-02-12T02:33:51.692Z,2.33
2019-02-12T02:36:23.437Z,2.30
2019-02-12T02:38:55.087Z,2.34
2019-02-12T02:41:26.682Z,2.34
2019-02-12T02:43:58.324Z,2.34
2019-02-12T02:46:30.049Z,2.43
2019-02-12T02:49:01.804Z,2.49
2019-02-12T02:51:33.460Z,2.61
2019-02-12T02:54:05.054Z,2.59
2019-02-12T02:56:36.783Z,2.50
2019-02-12T02:59:08.365Z,2.43
2019-02-12T03:01:39.994Z,2.47
2019-02-12T03:04:11.701Z,2.49
2019-02-12T03:06:43.365Z,2.59
2019-02-12T03:09:15.036Z,2.64
2019-02-12T03:11:46.694Z,2.62
2019-02-12T03:14:18.287Z,2.63
2019-02-12T03:16:49.854Z,2.62
2019-02-12T03:19:21.516Z,2.61
2019-02-12T03:21:53.096Z,2.63
2019-02-12T03:24:24.915Z,2.73
2019-02-12T03:26:56.516Z,2.73
2019-02-12T03:29:28.111Z,2.77
2019-02-12T03:31:59.789Z,2.80
2019-02-12T03:34:31.506Z,2.84
2019-02-12T03:37:03.086Z,2.84
2019-02-12T03:39:34.790Z,2.74
2019-02-12T03:42:06.346Z,2.74
2019-02-12T03:44:38.001Z,2.81
2019-02-12T03:47:09.614Z,2.64
2019-02-12T03:49:41.497Z,2.64
2019-02-12T03:52:13.366Z,2.63
2019-02-12T03:54:45.053Z,2.53
2019-02-12T03:57:16.660Z,2.50
2019-02-12T03:59:48.270Z,2.60
2019-02-12T04:02:20.017Z,2.47
2019-02-12T04:04:51.710Z,2.43
2019-02-12T04:07:23.317Z,2.50
2019-02-12T04:09:54.976Z,2.52
2019-02-12T04:12:29.163Z,2.53
2019-02-12T04:15:00.742Z,2.50
2019-02-12T04:17:32.391Z,2.40
2019-02-12T04:20:05.269Z,2.40
2019-02-12T04:22:36.947Z,2.45
2019-02-12T04:25:08.729Z,2.46
2019-02-12T04:27:40.327Z,2.57
2019-02-12T04:30:12.000Z,2.61
2019-02-12T04:32:43.718Z,2.65
2019-02-12T04:35:15.662Z,2.66
2019-02-12T04:37:48.295Z,2.64
2019-02-12T04:40:19.930Z,2.58
2019-02-12T04:42:51.591Z,2.64
2019-02-12T04:45:23.212Z,2.65
2019-02-12T04:47:55.001Z,2.72
2019-02-12T04:50:27.294Z,2.66
2019-02-12T04:52:58.914Z,2.71
2019-02-12T04:55:30.582Z,2.59
2019-02-12T04:58:02.144Z,2.56
2019-02-12T05:00:36.283Z,2.56
2019-02-12T05:03:07.851Z,2.67
2019-02-12T05:05:39.508Z,2.68
2019-02-12T05:08:12.213Z,2.55
2019-02-12T05:11:08.164Z,2.53
2019-02-12T05:13:39.945Z,2.44
2019-02-12T05:16:11.557Z,2.38
2019-02-12T05:18:43.194Z,2.37
2019-02-12T05:21:14.891Z,2.42
2019-02-12T05:23:46.701Z,2.43
2019-02-12T05:26:18.499Z,2.51
2019-02-12T05:28:50.337Z,2.60
2019-02-12T05:31:21.981Z,2.59
2019-02-12T05:33:53.837Z,2.73
2019-02-12T05:36:25.846Z,2.67
2019-02-12T05:38:57.516Z,2.66
2019-02-12T05:41:29.124Z,2.63
2019-02-12T05:44:00.720Z,2.60
2019-02-12T05:46:32.332Z,2.65
2019-02-12T05:49:03.941Z,2.64
2019-02-12T05:51:37.019Z,2.65
2019-02-12T05:54:08.745Z,2.69
2019-02-12T05:56:40.523Z,2.80
2019-02-12T05:59:12.223Z,2.77
2019-02-12T06:01:43.875Z,2.82
2019-02-12T06:04:15.525Z,2.72
2019-02-12T06:06:47.110Z,2.75
2019-02-12T06:09:18.839Z,2.74
2019-02-12T06:11:50.494Z,2.68
2019-02-12T06:14:22.111Z,2.76
2019-02-12T06:16:53.899Z,2.94
2019-02-12T06:19:25.480Z,2.78
2019-02-12T06:21:57.242Z,2.82
2019-02-12T06:24:29.892Z,2.77
2019-02-12T06:27:02.121Z,2.77
2019-02-12T06:29:33.768Z,2.78
2019-02-12T06:32:05.397Z,2.77
2019-02-12T06:34:37.185Z,2.79
2019-02-12T06:37:09.498Z,2.78
2019-02-12T06:39:44.113Z,2.78
2019-02-12T06:42:16.575Z,2.80
2019-02-12T06:44:48.340Z,2.72
2019-02-12T06:47:20.231Z,2.76
2019-02-12T06:49:51.893Z,2.77
2019-02-12T06:52:23.604Z,2.74
2019-02-12T06:54:58.404Z,2.76
2019-02-12T06:57:45.811Z,2.77
2019-02-12T07:00:17.393Z,2.80
2019-02-12T07:03:18.773Z,2.81
2019-02-12T07:06:16.545Z,2.78
2019-02-12T07:08:56.047Z,2.76
2019-02-12T07:11:50.164Z,2.80
2019-02-12T07:14:38.707Z,2.77
2019-02-12T07:17:33.163Z,2.85
2019-02-12T07:20:49.212Z,2.82
2019-02-12T07:23:49.478Z,2.85
2019-02-12T07:26:45.461Z,2.89
2019-02-12T07:29:39.146Z,2.90
2019-02-12T07:32:27.162Z,2.87
2019-02-12T07:35:12.616Z,2.88
2019-02-12T07:37:52.070Z,2.93
2019-02-12T07:40:51.219Z,2.95
2019-02-12T07:44:02.035Z,2.90
2019-02-12T07:46:38.712Z,3.01
2019-02-12T07:49:33.341Z,2.98
2019-02-12T07:52:24.479Z,3.05
2019-02-12T07:55:09.988Z,3.09
2019-02-12T07:57:58.442Z,3.06
2019-02-12T08:00:58.969Z,3.11
2019-02-12T08:04:20.567Z,3.15
2019-02-12T08:07:33.026Z,3.19
2019-02-12T08:10:53.710Z,3.25
2019-02-12T08:13:45.801Z,3.24
2019-02-12T08:16:49.522Z,3.26
2019-02-12T08:19:42.443Z,3.33
2019-02-12T08:22:43.221Z,3.34
2019-02-12T08:25:31.027Z,3.44
2019-02-12T08:28:07.650Z,3.49
2019-02-12T08:30:58.830Z,3.51
2019-02-12T08:33:49.813Z,3.53
2019-02-12T08:36:38.124Z,3.50
2019-02-12T08:39:32.586Z,3.52
2019-02-12T08:42:11.910Z,3.54
2019-02-12T08:44:58.600Z,3.51
2019-02-12T08:47:57.111Z,3.43
2019-02-12T08:50:57.106Z,3.56
2019-02-12T08:53:59.701Z,3.53
2019-02-12T08:56:59.502Z,3.52
2019-02-12T08:59:43.569Z,3.46
2019-02-12T09:06:11.791Z,3.53
2019-02-12T09:09:07.482Z,3.56
2019-02-12T09:12:19.713Z,3.62
2019-02-12T09:15:16.819Z,3.62
2019-02-12T09:18:11.380Z,3.65
2019-02-12T09:20:53.404Z,3.74
2019-02-12T09:23:59.389Z,3.71
2019-02-12T09:26:37.824Z,3.79
2019-02-12T09:29:14.268Z,3.92
2019-02-12T09:32:08.671Z,3.92
2019-02-12T09:35:08.830Z,4.01
2019-02-12T09:37:56.809Z,4.00
2019-02-12T09:40:36.217Z,4.11
2019-02-12T09:43:43.976Z,4.12
2019-02-12T09:46:34.925Z,4.01
2019-02-12T09:49:30.955Z,4.13
2019-02-12T09:52:28.073Z,4.21
2019-02-12T09:55:25.375Z,4.07
2019-02-12T09:58:19.764Z,4.09
2019-02-12T10:00:58.896Z,4.14
2019-02-12T10:03:41.325Z,4.23
2019-02-12T10:06:38.890Z,4.28
2019-02-12T10:09:23.741Z,4.27
2019-02-12T10:12:14.532Z,4.10
2019-02-12T10:15:02.707Z,4.12
2019-02-12T10:18:04.998Z,4.09
2019-02-12T10:21:24.112Z,4.10
2019-02-12T10:24:27.517Z,4.14
2019-02-12T10:27:43.633Z,4.14
2019-02-12T10:30:34.750Z,4.22
2019-02-12T10:33:06.376Z,4.50
2019-02-12T10:35:38.017Z,4.53
2019-02-12T10:44:19.296Z,4.53
2019-02-12T10:46:50.857Z,4.56
2019-02-12T10:53:00.377Z,4.66
2019-02-12T10:55:31.925Z,4.70
2019-02-12T10:58:03.487Z,4.65
2019-02-12T11:00:35.247Z,4.79
2019-02-12T11:03:07.339Z,4.82
2019-02-12T11:05:38.919Z,4.79
2019-02-12T11:08:10.624Z,4.82
2019-02-12T11:10:42.180Z,4.79
2019-02-12T11:13:14.822Z,4.74
2019-02-12T11:15:46.454Z,4.68
2019-02-12T11:18:18.012Z,4.77
2019-02-12T11:20:49.633Z,4.84
2019-02-12T11:23:21.268Z,4.78
2019-02-12T11:25:52.824Z,4.82
2019-02-12T11:28:24.464Z,4.84
2019-02-12T11:30:56.092Z,4.83
2019-02-12T11:33:27.659Z,5.02
2019-02-12T11:35:59.221Z,5.05
2019-02-12T11:38:31.954Z,4.99
2019-02-12T11:41:03.531Z,4.94
2019-02-12T11:43:35.112Z,4.85
2019-02-12T11:46:06.681Z,4.79
2019-02-12T11:48:38.245Z,4.85
2019-02-12T11:51:09.879Z,4.92
2019-02-12T11:53:41.610Z,4.98
2019-02-12T11:56:13.261Z,4.92
2019-02-12T11:58:44.834Z,4.98
2019-02-12T12:01:17.733Z,5.03
2019-02-12T12:03:49.296Z,5.11
2019-02-12T12:06:20.943Z,5.32
2019-02-12T12:08:52.580Z,5.20
2019-02-12T12:11:24.157Z,5.18
2019-02-12T12:13:55.713Z,5.14
2019-02-12T12:16:27.296Z,5.32
2019-02-12T12:18:58.872Z,5.30
2019-02-12T12:21:30.434Z,5.34
2019-02-12T12:24:02.036Z,5.23
2019-02-12T12:26:33.602Z,5.22
2019-02-12T12:29:05.239Z,5.20
2019-02-12T12:31:36.798Z,5.11
2019-02-12T12:34:08.351Z,5.14
2019-02-12T12:36:39.891Z,5.10
2019-02-12T12:39:11.455Z,5.06
2019-02-12T12:41:43.030Z,4.98
2019-02-12T12:44:14.671Z,4.99
2019-02-12T12:46:46.224Z,5.04
2019-02-12T12:49:17.781Z,5.01
2019-02-12T12:51:49.334Z,4.98
2019-02-12T12:54:20.908Z,4.87
2019-02-12T12:56:52.512Z,4.99
2019-02-12T12:59:24.141Z,4.95
2019-02-12T13:01:55.719Z,4.96
2019-02-12T13:04:27.297Z,4.95
2019-02-12T13:06:59.851Z,4.86
2019-02-12T13:09:31.516Z,4.77
2019-02-12T13:12:03.082Z,4.78
2019-02-12T13:14:34.649Z,4.86
2019-02-12T13:17:06.221Z,4.87
2019-02-12T13:19:37.776Z,4.95
2019-02-12T13:22:09.344Z,5.00
2019-02-12T13:24:41.788Z,4.93
2019-02-12T13:27:13.517Z,4.90
2019-02-12T13:29:45.132Z,4.98
2019-02-12T13:32:16.696Z,5.04
2019-02-12T13:34:48.261Z,5.06
2019-02-12T13:37:19.828Z,5.12
2019-02-12T13:39:51.529Z,5.24
2019-02-12T13:42:23.127Z,5.23
2019-02-12T13:44:54.682Z,5.21
2019-02-12T13:47:26.310Z,5.27
2019-02-12T13:49:59.285Z,5.35
2019-02-12T13:52:30.892Z,5.22
2019-02-12T13:55:02.498Z,5.15
2019-02-12T13:57:34.069Z,5.16
2019-02-12T14:00:19.146Z,5.16
2019-02-12T14:02:50.710Z,5.14
2019-02-12T14:05:24.442Z,5.06
2019-02-12T14:07:56.096Z,5.09
2019-02-12T14:10:28.729Z,5.11
2019-02-12T14:13:00.289Z,5.10
2019-02-12T14:15:31.938Z,5.09
2019-02-12T14:18:03.569Z,5.14
2019-02-12T14:20:35.141Z,5.19
2019-02-12T14:23:06.713Z,5.18
2019-02-12T14:25:38.431Z,5.20
2019-02-12T14:28:09.982Z,5.26
2019-02-12T14:30:41.555Z,5.24
2019-02-12T14:33:13.154Z,5.19
2019-02-12T14:35:44.711Z,5.20
2019-02-12T14:38:16.293Z,5.21
2019-02-12T14:40:47.885Z,5.18
2019-02-12T14:43:19.450Z,5.24
2019-02-12T14:45:51.047Z,5.17
2019-02-12T14:48:22.617Z,5.17
2019-02-12T14:50:54.236Z,5.18
2019-02-12T14:53:25.879Z,5.22
2019-02-12T14:55:57.500Z,5.26
2019-02-12T14:58:29.105Z,5.23
2019-02-12T15:01:00.679Z,5.24
2019-02-12T15:03:32.258Z,5.23
2019-02-12T15:06:03.846Z,5.26
2019-02-12T15:08:35.420Z,5.30
2019-02-12T15:11:07.044Z,5.27
2019-02-12T15:13:38.606Z,5.30
2019-02-12T15:16:10.265Z,5.28
2019-02-12T15:18:41.838Z,5.30
2019-02-12T15:21:13.546Z,5.34
2019-02-12T15:23:45.183Z,5.29
2019-02-12T15:26:16.773Z,5.27
2019-02-12T15:28:48.369Z,5.30
2019-02-12T15:31:19.948Z,5.35
2019-02-12T15:33:51.677Z,5.20
2019-02-12T15:36:23.337Z,5.08
2019-02-12T15:38:55.198Z,5.01
2019-02-12T15:41:26.751Z,4.99
2019-02-12T15:43:58.383Z,4.93
2019-02-12T15:46:29.991Z,4.86
2019-02-12T15:49:01.558Z,4.81
2019-02-12T15:51:33.138Z,4.79
2019-02-12T15:54:06.331Z,4.76
2019-02-12T15:56:39.243Z,4.76
2019-02-12T15:59:12.376Z,4.68
2019-02-12T16:01:44.133Z,4.66
2019-02-12T16:04:15.711Z,4.63
2019-02-12T16:06:47.339Z,4.62
2019-02-12T16:09:18.923Z,4.66
2019-02-12T16:11:50.475Z,4.55
2019-02-12T16:14:22.067Z,4.55
2019-02-12T16:16:54.148Z,4.51
2019-02-12T16:19:25.767Z,4.47
2019-02-12T16:21:57.349Z,4.48
2019-02-12T16:24:28.942Z,4.47
2019-02-12T16:27:00.495Z,4.44
2019-02-12T16:29:32.164Z,4.41
2019-02-12T16:32:03.824Z,4.33
2019-02-12T16:34:35.378Z,4.35
2019-02-12T16:37:06.960Z,4.27
2019-02-12T16:39:38.560Z,4.26
2019-02-12T16:42:10.196Z,4.22
2019-02-12T16:44:41.774Z,4.23
2019-02-12T16:47:13.370Z,4.20
2019-02-12T16:49:44.988Z,4.17
2019-02-12T16:52:20.795Z,4.18
2019-02-12T16:54:49.886Z,4.16
2019-02-12T16:57:21.552Z,4.16
2019-02-12T16:59:53.158Z,4.12
2019-02-12T17:02:24.745Z,4.07
2019-02-12T17:04:56.370Z,4.02
2019-02-12T17:07:28.044Z,4.04
2019-02-12T17:10:00.554Z,4.01
2019-02-12T17:12:33.274Z,4.01
2019-02-12T17:15:06.773Z,3.98
2019-02-12T17:17:38.463Z,4.02
2019-02-12T17:20:17.457Z,3.96
2019-02-12T17:22:49.074Z,3.97
2019-02-12T17:25:20.647Z,3.97
2019-02-12T17:27:52.226Z,3.95
2019-02-12T17:30:23.881Z,3.91
2019-02-12T17:32:55.461Z,3.92
2019-02-12T17:35:27.038Z,3.83
2019-02-12T17:37:58.726Z,3.86
2019-02-12T17:40:30.358Z,3.79
2019-02-12T17:43:02.010Z,3.75
2019-02-12T17:45:33.830Z,3.72
2019-02-12T17:48:05.416Z,3.68
2019-02-12T17:50:37.111Z,3.70
2019-02-12T17:53:08.667Z,3.67
2019-02-12T17:55:40.317Z,3.67
2019-02-12T17:58:11.959Z,3.64
2019-02-12T18:00:45.309Z,3.65
2019-02-12T18:03:16.919Z,3.64
2019-02-12T18:05:48.494Z,3.57
2019-02-12T18:08:20.066Z,3.61
2019-02-12T18:10:51.645Z,3.60
2019-02-12T18:13:23.355Z,3.51
2019-02-12T18:15:55.120Z,3.47
2019-02-12T18:18:26.697Z,3.46
2019-02-12T18:20:58.309Z,3.38
2019-02-12T18:23:29.965Z,3.43
2019-02-12T18:26:01.582Z,3.37
2019-02-12T18:28:33.147Z,3.36
2019-02-12T18:31:04.811Z,3.31
2019-02-12T18:33:36.381Z,3.33
2019-02-12T18:36:07.926Z,3.29
2019-02-12T18:38:39.509Z,3.26
2019-02-12T18:41:11.090Z,3.26
2019-02-12T18:43:42.659Z,3.21
2019-02-12T18:46:14.180Z,3.23
2019-02-12T18:48:45.763Z,3.22
2019-02-12T18:51:17.259Z,3.23
2019-02-12T18:53:48.841Z,3.23
2019-02-12T18:56:20.343Z,3.30
2019-02-12T18:58:51.919Z,3.29
2019-02-12T19:01:23.511Z,3.38
2019-02-12T19:03:55.992Z,3.48
2019-02-12T19:06:27.544Z,3.51
2019-02-12T19:08:59.098Z,3.63
2019-02-12T19:11:30.618Z,3.97
2019-02-12T19:14:02.137Z,4.16
2019-02-12T19:16:33.759Z,4.31
2019-02-12T19:19:05.332Z,3.89
2019-02-12T19:21:36.892Z,3.65
2019-02-12T19:24:08.547Z,3.63
2019-02-12T19:26:40.133Z,3.41
2019-02-12T19:29:11.722Z,3.46
2019-02-12T19:31:43.280Z,3.48
2019-02-12T19:34:14.935Z,3.69
2019-02-12T19:36:46.458Z,3.98
2019-02-12T19:39:17.976Z,4.15
2019-02-12T19:41:49.498Z,4.27
2019-02-12T19:44:21.064Z,4.22
2019-02-12T19:46:52.602Z,4.32
2019-02-12T19:49:25.071Z,4.34
2019-02-12T19:51:56.580Z,4.37
2019-02-12T19:54:28.094Z,4.32
2019-02-12T19:56:59.712Z,4.34
2019-02-12T19:59:31.199Z,4.31
2019-02-12T20:02:02.697Z,4.41
2019-02-12T20:04:34.200Z,4.46
2019-02-12T20:07:05.782Z,4.50
2019-02-12T20:09:37.302Z,4.50
2019-02-12T20:12:08.837Z,4.48
2019-02-12T20:14:53.264Z,4.51
2019-02-12T20:17:25.037Z,4.06
2019-02-12T20:19:57.181Z,3.97
2019-02-12T20:22:28.857Z,4.03
2019-02-12T20:25:00.450Z,3.84
2019-02-12T20:27:36.010Z,3.64
2019-02-12T20:30:09.487Z,3.62
2019-02-12T20:32:41.070Z,3.81
2019-02-12T20:35:17.055Z,3.99
2019-02-12T20:37:48.592Z,4.11
2019-02-12T20:40:20.165Z,4.16
2019-02-12T20:42:51.693Z,4.16
2019-02-12T20:45:23.288Z,4.23
2019-02-12T20:47:54.882Z,4.26
2019-02-12T20:50:26.455Z,4.28
2019-02-12T20:52:58.031Z,4.27
2019-02-12T20:55:29.571Z,4.26
2019-02-12T20:58:01.159Z,4.21
2019-02-12T21:00:32.960Z,4.21
2019-02-12T21:03:04.622Z,4.20
2019-02-12T21:05:36.204Z,4.17
2019-02-12T21:08:07.730Z,4.17
2019-02-12T21:10:39.961Z,4.13
2019-02-12T21:13:11.516Z,4.12
2019-02-12T21:15:43.235Z,4.08
2019-02-12T21:18:15.876Z,4.07
2019-02-12T21:20:47.385Z,4.03
2019-02-12T21:23:18.983Z,3.97
2019-02-12T21:25:50.494Z,3.92
2019-02-12T21:28:22.034Z,3.94
2019-02-12T21:30:53.629Z,3.92
2019-02-12T21:33:26.362Z,3.87
2019-02-12T21:35:57.922Z,3.87
2019-02-12T21:38:29.562Z,3.88
2019-02-12T21:41:01.089Z,3.88
2019-02-12T21:43:32.660Z,3.87
2019-02-12T21:46:04.337Z,3.83
2019-02-12T21:48:36.068Z,3.80
2019-02-12T21:51:07.647Z,3.80
2019-02-12T21:53:39.415Z,3.76
2019-02-12T21:56:10.936Z,3.73
2019-02-12T21:58:42.509Z,3.73
2019-02-12T22:01:14.073Z,3.75
2019-02-12T22:03:45.610Z,3.73
2019-02-12T22:06:17.226Z,3.71
2019-02-12T22:08:48.778Z,3.69
2019-02-12T22:11:20.296Z,3.69
2019-02-12T22:13:51.925Z,3.66
2019-02-12T22:16:23.738Z,3.68
2019-02-12T22:18:55.272Z,3.68
2019-02-12T22:21:26.875Z,3.64
2019-02-12T22:23:58.437Z,3.67
2019-02-12T22:26:30.056Z,3.65
2019-02-12T22:29:01.584Z,3.64
2019-02-12T22:31:33.167Z,3.68
2019-02-12T22:34:05.049Z,3.70
2019-02-12T22:36:36.842Z,3.74
2019-02-12T22:39:08.350Z,3.65
2019-02-12T22:41:40.174Z,3.66
2019-02-12T22:44:11.755Z,3.69
2019-02-12T22:46:43.418Z,3.70
2019-02-12T22:49:15.085Z,3.69
2019-02-12T22:51:46.779Z,3.69
2019-02-12T22:54:18.567Z,3.62
2019-02-12T22:56:50.248Z,3.71
2019-02-12T22:59:21.801Z,3.82
2019-02-12T23:01:53.461Z,3.83
2019-02-12T23:04:25.007Z,3.74
2019-02-12T23:06:56.584Z,3.71
2019-02-12T23:09:28.297Z,3.80
2019-02-12T23:11:59.829Z,3.90
2019-02-12T23:14:31.365Z,3.94
2019-02-12T23:17:03.387Z,3.96
2019-02-12T23:19:35.111Z,3.95
2019-02-12T23:22:07.803Z,3.97
2019-02-12T23:24:39.392Z,4.00
2019-02-12T23:27:11.008Z,3.99
2019-02-12T23:29:42.580Z,4.01
2019-02-12T23:32:14.252Z,4.05
2019-02-12T23:34:45.785Z,4.09
2019-02-12T23:37:17.791Z,4.07
2019-02-12T23:39:49.397Z,4.06
2019-02-12T23:42:20.933Z,3.89
2019-02-12T23:44:52.535Z,3.99
2019-02-12T23:47:24.150Z,3.88
2019-02-12T23:49:55.737Z,3.86
2019-02-12T23:52:27.390Z,3.96
2019-02-12T23:54:59.131Z,4.00
2019-02-12T23:57:30.662Z,4.06
